createdAt,value
2018-09-04T00:26:25.606Z,86.76
2018-09-04T00:28:58.771Z,85.67
2018-09-04T00:31:28.806Z,86.04
2018-09-04T00:33:58.899Z,85.21
2018-09-04T00:36:32.710Z,85.65
2018-09-04T00:39:03.010Z,85.00
2018-09-04T00:41:34.832Z,85.54
2018-09-04T00:44:08.426Z,84.62
2018-09-04T00:46:41.837Z,84.65
2018-09-04T00:49:12.155Z,84.57
2018-09-04T00:51:42.896Z,84.31
2018-09-04T00:54:13.061Z,85.01
2018-09-04T00:56:45.449Z,85.19
2018-09-04T00:59:16.917Z,85.01
2018-09-04T01:01:48.543Z,84.97
2018-09-04T01:04:20.439Z,85.38
2018-09-04T01:06:54.347Z,84.31
2018-09-04T01:09:26.493Z,84.84
2018-09-04T01:12:00.486Z,84.98
2018-09-04T01:14:30.803Z,85.89
2018-09-04T01:17:02.923Z,85.33
2018-09-04T01:19:32.853Z,85.83
2018-09-04T01:22:05.400Z,85.95
2018-09-04T01:24:35.988Z,85.29
2018-09-04T01:27:08.304Z,84.68
2018-09-04T01:29:40.175Z,84.57
2018-09-04T01:32:11.876Z,84.84
2018-09-04T01:34:43.694Z,84.66
2018-09-04T01:37:16.675Z,85.36
2018-09-04T01:39:47.266Z,83.98
2018-09-04T01:42:17.941Z,84.56
2018-09-04T01:44:49.656Z,84.80
2018-09-04T01:47:21.364Z,84.08
2018-09-04T01:49:51.543Z,84.83
2018-09-04T01:52:21.764Z,84.45
2018-09-04T01:54:55.264Z,84.13
2018-09-04T01:57:28.083Z,84.68
2018-09-04T01:59:59.210Z,83.75
2018-09-04T02:02:29.856Z,83.82
2018-09-04T02:05:07.129Z,83.91
2018-09-04T02:07:45.203Z,84.67
2018-09-04T02:10:17.922Z,84.36
2018-09-04T02:12:48.658Z,85.29
2018-09-04T02:15:19.905Z,85.71
2018-09-04T02:17:49.987Z,86.47
2018-09-04T02:20:20.940Z,86.40
2018-09-04T02:22:51.058Z,86.67
2018-09-04T02:25:22.765Z,86.07
2018-09-04T02:27:55.752Z,87.09
2018-09-04T02:30:38.747Z,87.12
2018-09-04T02:33:14.594Z,86.45
2018-09-04T02:35:48.426Z,86.72
2018-09-04T02:38:20.284Z,87.23
2018-09-04T02:40:50.630Z,86.62
2018-09-04T02:43:21.127Z,86.99
2018-09-04T02:45:52.535Z,88.05
2018-09-04T02:48:23.479Z,87.31
2018-09-04T02:50:53.760Z,87.52
2018-09-04T02:53:25.773Z,88.37
2018-09-04T02:55:59.990Z,88.25
2018-09-04T02:58:34.612Z,88.37
2018-09-04T03:01:06.581Z,88.52
2018-09-04T03:03:37.312Z,88.96
2018-09-04T03:06:09.315Z,88.92
2018-09-04T03:08:42.078Z,88.40
2018-09-04T03:11:13.725Z,88.80
2018-09-04T03:13:43.988Z,89.59
2018-09-04T03:16:14.195Z,89.55
2018-09-04T03:18:45.547Z,89.47
2018-09-04T03:21:18.945Z,89.05
2018-09-04T03:23:49.123Z,88.76
2018-09-04T03:26:20.406Z,89.68
2018-09-04T03:28:50.727Z,89.22
2018-09-04T03:31:21.063Z,89.41
2018-09-04T03:33:53.342Z,89.29
2018-09-04T03:36:24.087Z,89.91
2018-09-04T03:38:54.893Z,90.10
2018-09-04T03:41:25.228Z,89.16
2018-09-04T03:43:57.304Z,89.85
2018-09-04T03:46:31.629Z,89.05
2018-09-04T03:49:01.926Z,89.44
2018-09-04T03:51:32.554Z,89.57
2018-09-04T03:54:03.080Z,89.54
2018-09-04T03:56:34.221Z,89.01
2018-09-04T03:59:09.366Z,88.73
2018-09-04T04:01:44.303Z,89.21
2018-09-04T04:04:18.336Z,88.83
2018-09-04T04:06:52.828Z,88.98
2018-09-04T04:09:26.937Z,89.16
2018-09-04T04:11:58.249Z,89.99
2018-09-04T04:14:28.968Z,90.24
2018-09-04T04:17:00.006Z,89.23
2018-09-04T04:19:30.275Z,89.75
2018-09-04T04:22:04.534Z,88.90
2018-09-04T04:24:34.969Z,89.12
2018-09-04T04:27:06.096Z,89.31
2018-09-04T04:29:36.735Z,89.36
2018-09-04T04:32:07.674Z,89.22
2018-09-04T04:34:47.940Z,89.79
2018-09-04T04:37:19.345Z,89.38
2018-09-04T04:39:50.281Z,89.38
2018-09-04T04:42:23.146Z,89.65
2018-09-04T04:44:59.838Z,90.06
2018-09-04T04:47:35.688Z,90.00
2018-09-04T04:50:06.953Z,89.21
2018-09-04T04:52:39.123Z,89.84
2018-09-04T04:55:09.953Z,89.68
2018-09-04T04:57:40.157Z,89.37
2018-09-04T05:00:14.900Z,88.93
2018-09-04T05:02:48.527Z,89.09
2018-09-04T05:05:20.426Z,89.13
2018-09-04T05:07:51.269Z,89.44
2018-09-04T05:10:24.746Z,88.90
2018-09-04T05:12:56.058Z,89.15
2018-09-04T05:15:35.143Z,88.96
2018-09-04T05:18:08.473Z,88.48
2018-09-04T05:20:38.959Z,88.61
2018-09-04T05:23:09.647Z,88.49
2018-09-04T05:25:40.822Z,88.57
2018-09-04T05:28:11.165Z,88.65
2018-09-04T05:30:42.268Z,88.54
2018-09-04T05:33:36.808Z,87.77
2018-09-04T05:36:10.716Z,88.30
2018-09-04T05:38:44.403Z,88.01
2018-09-04T05:41:14.995Z,87.31
2018-09-04T05:43:50.632Z,87.19
2018-09-04T05:46:35.484Z,86.93
2018-09-04T05:49:06.456Z,87.40
2018-09-04T05:51:37.778Z,88.00
2018-09-04T05:54:09.394Z,87.71
2018-09-04T05:56:40.232Z,87.44
2018-09-04T05:59:11.754Z,86.39
2018-09-04T06:01:42.505Z,86.44
2018-09-04T06:04:14.020Z,86.30
2018-09-04T06:06:45.521Z,86.48
2018-09-04T06:09:16.199Z,86.29
2018-09-04T06:11:47.003Z,85.87
2018-09-04T06:14:17.306Z,86.53
2018-09-04T06:16:47.930Z,86.15
2018-09-04T06:19:19.923Z,86.12
2018-09-04T06:21:50.688Z,86.18
2018-09-04T06:24:21.357Z,85.37
2018-09-04T06:26:51.604Z,85.03
2018-09-04T06:29:23.098Z,84.82
2018-09-04T06:31:53.713Z,84.88
2018-09-04T06:34:25.826Z,84.77
2018-09-04T06:36:56.146Z,83.99
2018-09-04T06:39:26.777Z,84.28
2018-09-04T06:42:00.073Z,83.12
2018-09-04T06:44:31.625Z,82.35
2018-09-04T06:47:03.480Z,81.17
2018-09-04T06:49:36.319Z,80.60
2018-09-04T06:52:13.807Z,80.02
2018-09-04T06:54:47.260Z,79.33
2018-09-04T06:57:18.309Z,79.60
2018-09-04T06:59:49.675Z,78.72
2018-09-04T07:02:20.114Z,80.48
2018-09-04T07:07:29.015Z,77.94
2018-09-04T07:10:00.159Z,74.23
2018-09-04T07:12:33.512Z,71.32
2018-09-04T07:15:05.688Z,67.51
2018-09-04T07:17:37.063Z,64.57
2018-09-04T07:20:11.328Z,64.43
2018-09-04T07:22:54.001Z,65.35
2018-09-04T07:25:33.877Z,64.35
2018-09-04T07:28:06.630Z,62.72
2018-09-04T07:30:41.050Z,63.40
2018-09-04T07:33:12.950Z,60.51
2018-09-04T07:35:44.153Z,62.32
2018-09-04T07:38:14.369Z,63.77
2018-09-04T07:40:47.366Z,66.36
2018-09-04T07:43:19.501Z,68.14
2018-09-04T07:45:49.560Z,67.31
2018-09-04T07:48:21.888Z,67.41
2018-09-04T07:50:52.353Z,68.38
2018-09-04T07:53:22.660Z,64.94
2018-09-04T07:55:53.935Z,59.80
2018-09-04T07:58:25.350Z,61.79
2018-09-04T08:00:56.371Z,62.05
2018-09-04T08:03:27.030Z,61.02
2018-09-04T08:05:59.246Z,62.69
2018-09-04T08:08:30.051Z,62.58
2018-09-04T08:11:02.508Z,61.62
2018-09-04T08:13:33.326Z,61.24
2018-09-04T08:16:03.452Z,63.44
2018-09-04T08:18:34.023Z,64.71
2018-09-04T08:21:06.079Z,62.32
2018-09-04T08:23:36.769Z,63.79
2018-09-04T08:26:08.045Z,64.57
2018-09-04T08:28:38.343Z,60.96
2018-09-04T08:31:12.173Z,62.35
2018-09-04T08:33:42.993Z,62.47
2018-09-04T08:36:13.201Z,62.83
2018-09-04T08:38:50.850Z,62.60
2018-09-04T08:41:21.289Z,59.78
2018-09-04T08:43:52.793Z,57.94
2018-09-04T08:46:23.025Z,58.20
2018-09-04T08:48:53.422Z,57.29
2018-09-04T08:51:26.315Z,58.36
2018-09-04T08:53:57.097Z,55.81
2018-09-04T08:56:27.435Z,56.01
2018-09-04T08:58:59.076Z,56.33
2018-09-04T09:01:40.276Z,57.40
2018-09-04T09:04:31.926Z,54.75
2018-09-04T09:07:12.320Z,54.84
2018-09-04T09:12:35.703Z,55.76
2018-09-04T09:17:45.332Z,58.38
2018-09-04T09:20:16.821Z,58.94
2018-09-04T09:22:48.864Z,59.49
2018-09-04T09:25:20.495Z,57.82
2018-09-04T09:27:50.729Z,58.67
2018-09-04T09:30:20.843Z,61.62
2018-09-04T09:32:51.499Z,61.49
2018-09-04T09:35:21.972Z,61.80
2018-09-04T09:37:52.940Z,61.53
2018-09-04T09:40:23.415Z,61.08
2018-09-04T09:42:53.583Z,59.79
2018-09-04T09:45:24.714Z,59.50
2018-09-04T09:47:54.864Z,60.17
2018-09-04T09:50:25.892Z,59.33
2018-09-04T09:52:56.803Z,60.68
2018-09-04T09:55:28.384Z,60.31
2018-09-04T09:57:59.203Z,61.55
2018-09-04T10:00:38.699Z,59.96
2018-09-04T10:03:14.394Z,59.89
2018-09-04T10:05:51.303Z,59.58
2018-09-04T10:08:22.242Z,59.22
2018-09-04T10:10:53.413Z,59.75
2018-09-04T10:13:24.935Z,58.29
2018-09-04T10:15:56.302Z,57.82
2018-09-04T10:18:28.593Z,58.61
2018-09-04T10:21:00.719Z,58.68
2018-09-04T10:23:33.398Z,58.56
2018-09-04T10:26:06.076Z,57.75
2018-09-04T10:28:37.794Z,58.26
2018-09-04T10:31:14.475Z,57.37
2018-09-04T10:33:45.851Z,57.74
2018-09-04T10:36:18.999Z,57.46
2018-09-04T10:38:55.890Z,56.98
2018-09-04T10:41:27.115Z,58.50
2018-09-04T10:43:59.136Z,58.51
2018-09-04T10:46:33.435Z,57.85
2018-09-04T10:49:06.695Z,58.29
2018-09-04T10:51:38.932Z,58.75
2018-09-04T10:54:10.398Z,56.88
2018-09-04T10:56:41.394Z,57.28
2018-09-04T10:59:19.241Z,55.94
2018-09-04T11:01:50.261Z,57.51
2018-09-04T11:04:21.314Z,57.51
2018-09-04T11:06:53.380Z,56.62
2018-09-04T11:09:31.236Z,57.43
2018-09-04T11:12:09.969Z,57.22
2018-09-04T11:14:44.562Z,57.18
2018-09-04T11:17:19.619Z,56.13
2018-09-04T11:19:53.168Z,56.19
2018-09-04T11:22:28.610Z,56.93
2018-09-04T11:25:08.814Z,57.30
2018-09-04T11:27:50.801Z,58.14
2018-09-04T11:30:22.034Z,56.12
2018-09-04T11:32:54.613Z,55.98
2018-09-04T11:35:25.090Z,56.25
2018-09-04T11:37:56.270Z,56.48
2018-09-04T11:40:26.350Z,57.35
2018-09-04T11:42:57.639Z,56.40
2018-09-04T11:45:27.932Z,57.35
2018-09-04T11:47:59.412Z,56.79
2018-09-04T11:50:29.757Z,54.84
2018-09-04T11:53:00.640Z,55.83
2018-09-04T11:55:34.540Z,56.14
2018-09-04T11:58:04.815Z,56.30
2018-09-04T12:00:39.538Z,55.54
2018-09-04T12:03:12.068Z,55.97
2018-09-04T12:05:43.370Z,56.94
2018-09-04T12:08:13.689Z,56.78
2018-09-04T12:10:43.885Z,56.69
2018-09-04T12:13:18.209Z,57.29
2018-09-04T12:15:48.165Z,56.73
2018-09-04T12:18:18.342Z,56.08
2018-09-04T12:20:53.887Z,57.36
2018-09-04T12:23:24.196Z,57.05
2018-09-04T12:25:55.741Z,58.57
2018-09-04T12:28:26.369Z,56.61
2018-09-04T12:30:57.171Z,56.95
2018-09-04T12:33:27.042Z,56.50
2018-09-04T12:35:57.646Z,56.89
2018-09-04T12:38:29.339Z,55.60
2018-09-04T12:41:02.301Z,55.66
2018-09-04T12:43:32.779Z,55.72
2018-09-04T12:46:04.444Z,55.93
2018-09-04T12:48:34.972Z,55.32
2018-09-04T12:51:05.910Z,55.00
2018-09-04T12:53:41.617Z,55.74
2018-09-04T12:56:15.720Z,55.54
2018-09-04T12:58:47.781Z,55.03
2018-09-04T13:01:21.519Z,55.12
2018-09-04T13:03:53.250Z,55.73
2018-09-04T13:06:25.518Z,56.62
2018-09-04T13:09:00.940Z,56.19
2018-09-04T13:11:36.349Z,57.53
2018-09-04T13:14:08.845Z,55.82
2018-09-04T13:16:40.685Z,56.91
2018-09-04T13:19:11.319Z,55.35
2018-09-04T13:21:46.473Z,56.08
2018-09-04T13:24:17.796Z,57.53
2018-09-04T13:26:50.792Z,56.86
2018-09-04T13:29:20.973Z,56.94
2018-09-04T13:31:51.930Z,57.17
2018-09-04T13:34:32.660Z,57.95
2018-09-04T13:37:03.091Z,57.37
2018-09-04T13:39:33.129Z,56.38
2018-09-04T13:42:06.372Z,57.49
2018-09-04T13:44:37.955Z,56.68
2018-09-04T13:47:09.875Z,56.60
2018-09-04T13:49:42.483Z,56.12
2018-09-04T13:52:12.927Z,56.93
2018-09-04T13:54:43.376Z,56.98
2018-09-04T13:57:15.173Z,57.70
2018-09-04T13:59:45.671Z,57.04
2018-09-04T14:02:18.924Z,56.20
2018-09-04T14:04:49.808Z,55.92
2018-09-04T14:07:20.596Z,55.95
2018-09-04T14:09:51.266Z,55.04
2018-09-04T14:12:22.267Z,55.69
2018-09-04T14:14:52.571Z,54.74
2018-09-04T14:17:24.088Z,55.39
2018-09-04T14:19:54.535Z,58.85
2018-09-04T14:22:25.106Z,60.07
2018-09-04T14:24:56.075Z,62.47
2018-09-04T14:27:28.036Z,64.34
2018-09-04T14:30:16.144Z,65.43
2018-09-04T14:32:30.065Z,66.68
2018-09-04T14:35:00.401Z,66.77
2018-09-04T14:37:31.611Z,67.56
2018-09-04T14:40:01.917Z,66.74
2018-09-04T14:42:34.662Z,66.69
2018-09-04T14:45:05.951Z,67.12
2018-09-04T14:47:37.037Z,66.74
2018-09-04T14:50:08.678Z,67.18
2018-09-04T14:52:39.448Z,67.07
2018-09-04T14:55:09.587Z,67.71
2018-09-04T14:57:39.980Z,68.10
2018-09-04T15:00:11.697Z,68.30
2018-09-04T15:08:43.551Z,68.42
2018-09-04T15:11:15.324Z,68.40
2018-09-04T15:13:46.109Z,69.34
2018-09-04T15:25:48.230Z,67.90
2018-09-04T15:28:19.690Z,69.25
2018-09-04T15:30:51.703Z,70.04
2018-09-04T15:33:22.218Z,69.61
2018-09-04T15:35:52.596Z,68.78
2018-09-04T15:38:22.767Z,69.64
2018-09-04T15:40:53.350Z,70.53
2018-09-04T15:43:24.184Z,70.54
2018-09-04T15:45:54.425Z,70.97
2018-09-04T15:48:24.728Z,70.34
2018-09-04T15:50:55.082Z,70.82
2018-09-04T15:53:25.555Z,70.32
2018-09-04T15:55:57.111Z,70.58
2018-09-04T15:58:28.312Z,69.35
2018-09-04T16:00:58.452Z,67.33
2018-09-04T16:03:49.980Z,66.06
2018-09-04T16:06:44.545Z,64.69
2018-09-04T16:09:28.318Z,64.23
2018-09-04T16:12:07.134Z,63.62
2018-09-04T16:14:42.735Z,62.85
2018-09-04T16:17:22.977Z,63.27
2018-09-04T16:19:57.544Z,64.45
2018-09-04T16:22:33.909Z,65.84
2018-09-04T16:25:15.266Z,65.68
2018-09-04T16:27:50.500Z,65.93
2018-09-04T16:30:27.000Z,66.25
2018-09-04T16:33:14.437Z,66.38
2018-09-04T16:35:47.292Z,66.69
2018-09-04T16:41:30.839Z,66.57
2018-09-04T16:44:02.191Z,67.09
2018-09-04T16:46:40.130Z,67.12
2018-09-04T16:49:12.433Z,65.44
2018-09-04T16:52:04.916Z,65.99
2018-09-04T16:57:45.151Z,67.15
2018-09-04T17:00:16.407Z,67.65
2018-09-04T17:02:49.476Z,67.23
2018-09-04T17:05:22.685Z,67.31
2018-09-04T17:07:54.174Z,67.58
2018-09-04T17:10:33.358Z,67.16
2018-09-04T17:16:10.567Z,67.87
2018-09-04T17:18:42.772Z,67.88
2018-09-04T17:21:14.851Z,67.37
2018-09-04T17:23:45.007Z,67.33
2018-09-04T17:26:15.219Z,67.58
2018-09-04T17:28:47.823Z,67.34
2018-09-04T17:31:18.012Z,67.30
2018-09-04T17:33:51.686Z,66.64
2018-09-04T18:12:02.709Z,68.16
2018-09-04T18:14:34.811Z,67.04
2018-09-04T18:20:00.546Z,67.64
2018-09-04T18:22:31.987Z,67.37
2018-09-04T18:25:11.733Z,67.45
2018-09-04T18:27:43.499Z,66.89
2018-09-04T18:30:14.563Z,66.91
2018-09-04T18:32:45.274Z,66.81
2018-09-04T18:35:20.410Z,67.48
2018-09-04T18:37:54.616Z,67.86
2018-09-04T18:40:47.879Z,67.64
2018-09-04T18:43:22.033Z,68.46
2018-09-04T18:45:55.378Z,67.74
2018-09-04T18:48:32.904Z,68.35
2018-09-04T18:51:04.433Z,68.46
2018-09-04T18:53:34.812Z,69.04
2018-09-04T18:56:07.429Z,68.82
2018-09-04T18:58:37.796Z,69.87
2018-09-04T19:01:08.287Z,69.68
2018-09-04T19:03:39.908Z,70.42
2018-09-04T19:06:13.704Z,70.80
2018-09-04T19:08:46.233Z,70.31
2018-09-04T19:11:17.073Z,70.69
2018-09-04T19:13:47.810Z,70.98
2018-09-04T19:16:20.165Z,71.11
2018-09-04T19:18:51.668Z,71.51
2018-09-04T19:21:22.037Z,72.34
2018-09-04T19:23:52.556Z,71.95
2018-09-04T19:26:24.807Z,71.92
2018-09-04T19:29:05.526Z,73.10
2018-09-04T19:31:38.253Z,72.98
2018-09-04T19:37:05.584Z,73.16
2018-09-04T19:39:36.885Z,73.81
2018-09-04T19:48:18.840Z,74.70
2018-09-04T19:50:50.437Z,75.35
2018-09-04T19:53:22.031Z,74.86
2018-09-04T19:55:52.869Z,75.85
2018-09-04T19:58:26.921Z,76.06
2018-09-04T20:00:58.561Z,76.46
2018-09-04T20:03:28.964Z,76.05
2018-09-04T20:05:59.887Z,76.38
2018-09-04T20:23:51.001Z,77.96
2018-09-04T20:26:21.193Z,77.67
2018-09-04T20:28:51.860Z,77.15
2018-09-04T20:31:21.986Z,77.26
2018-09-04T20:33:52.502Z,77.29
2018-09-04T20:36:38.985Z,77.61
2018-09-04T20:39:10.617Z,77.17
2018-09-04T20:41:40.548Z,76.74
2018-09-04T20:44:12.494Z,77.40
2018-09-04T20:46:42.971Z,77.55
2018-09-04T20:49:15.144Z,76.61
2018-09-04T20:51:46.597Z,76.59
2018-09-04T20:54:19.088Z,76.93
2018-09-04T20:57:03.647Z,76.92
2018-09-04T20:59:50.097Z,75.80
2018-09-04T21:02:36.712Z,75.42
2018-09-04T21:05:23.576Z,75.05
2018-09-04T21:08:14.628Z,75.50
2018-09-04T21:10:45.563Z,76.02
2018-09-04T21:13:17.224Z,75.25
2018-09-04T21:15:47.856Z,75.45
2018-09-04T21:18:18.480Z,75.67
2018-09-04T21:20:49.018Z,75.29
2018-09-04T21:23:20.363Z,75.58
2018-09-04T21:28:41.271Z,76.09
2018-09-04T21:31:12.940Z,76.22
2018-09-04T21:33:44.320Z,75.72
2018-09-04T21:36:26.842Z,75.63
2018-09-04T21:38:58.791Z,76.36
2018-09-04T21:41:33.499Z,75.66
2018-09-04T21:44:04.023Z,75.86
2018-09-04T21:46:34.332Z,75.93
2018-09-04T21:49:06.648Z,76.11
2018-09-04T21:51:37.719Z,75.20
2018-09-04T21:54:09.616Z,75.13
2018-09-04T21:56:43.525Z,74.94
2018-09-04T21:59:14.165Z,74.96
2018-09-04T22:01:44.596Z,74.76
2018-09-04T22:04:15.148Z,73.89
2018-09-04T22:06:45.748Z,74.54
2018-09-04T22:09:16.481Z,74.84
2018-09-04T22:11:46.914Z,74.29
2018-09-04T22:14:20.732Z,75.38
2018-09-04T22:16:52.982Z,75.23
2018-09-04T22:19:23.398Z,75.19
2018-09-04T22:21:53.966Z,75.02
2018-09-04T22:24:25.473Z,75.31
2018-09-04T22:26:57.737Z,75.93
2018-09-04T22:29:29.602Z,76.19
2018-09-04T22:32:02.830Z,76.87
2018-09-04T22:34:35.579Z,77.33
2018-09-04T22:37:06.747Z,76.11
2018-09-04T22:39:39.028Z,77.08
2018-09-04T22:42:10.948Z,75.64
2018-09-04T22:44:41.304Z,76.57
2018-09-04T22:50:01.393Z,76.78
2018-09-04T22:52:33.649Z,77.23
2018-09-04T22:55:08.818Z,77.96
2018-09-04T22:57:38.899Z,78.38
2018-09-04T23:00:12.455Z,78.96
2018-09-04T23:02:44.669Z,78.52
2018-09-04T23:05:15.658Z,79.57
2018-09-04T23:07:48.737Z,80.05
2018-09-04T23:10:19.025Z,79.65
2018-09-04T23:12:49.691Z,79.27
2018-09-04T23:15:23.660Z,78.62
2018-09-04T23:20:35.212Z,79.54
2018-09-04T23:23:09.584Z,79.10
2018-09-04T23:25:39.718Z,78.87
2018-09-04T23:28:12.063Z,78.88
2018-09-04T23:30:43.282Z,78.12
2018-09-04T23:33:14.740Z,78.96
2018-09-04T23:35:47.669Z,79.57
2018-09-04T23:38:19.259Z,78.88
2018-09-04T23:40:49.736Z,79.82
2018-09-04T23:43:22.590Z,79.92
2018-09-04T23:45:53.868Z,80.34
2018-09-04T23:48:27.688Z,80.04
2018-09-04T23:50:58.468Z,81.10
2018-09-04T23:53:29.514Z,81.04
2018-09-04T23:55:59.879Z,81.59
2018-09-04T23:58:30.028Z,82.22
